Time;durP1;ratioP1;P1;durP2;ratioP2;P2;SDS_P1;SDS_P2;PMS_P1;PMS_P2;Temp;Humidity;BMP_temperature;BMP_pressure;BME280_temperature;BME280_humidity;BME280_pressure;Samples;Min_cycle;Max_cycle;Signal;HPM_P1;HPM_P2
2023/10/07 00:02:51;;;;;;;12.00;3.33;;;16.30;99.90;;;;;;5073106;28;20036;-38
2023/10/07 00:05:17;;;;;;;9.23;3.00;;;16.40;99.90;;;;;;5073072;28;20020;-40
2023/10/07 00:07:46;;;;;;;9.60;3.28;;;16.40;99.90;;;;;;5072860;28;20025;-38
2023/10/07 00:10:19;;;;;;;11.75;3.45;;;16.40;99.90;;;;;;5072999;28;20040;-36
2023/10/07 00:12:45;;;;;;;14.13;2.97;;;16.40;99.90;;;;;;5071092;28;20043;-40
2023/10/07 00:15:11;;;;;;;11.77;3.17;;;16.40;99.90;;;;;;5072452;28;20486;-40
2023/10/07 00:17:42;;;;;;;9.93;3.28;;;16.40;99.90;;;;;;5072671;28;20017;-41
2023/10/07 00:20:12;;;;;;;14.98;3.75;;;16.40;99.90;;;;;;5073666;28;20056;-37
2023/10/07 00:22:41;;;;;;;10.50;4.18;;;16.40;99.90;;;;;;5076992;28;20028;-38
2023/10/07 00:25:07;;;;;;;12.45;2.95;;;16.40;99.90;;;;;;5076801;28;20191;-37
2023/10/07 00:27:38;;;;;;;17.83;4.10;;;16.40;99.90;;;;;;5064213;28;20543;-41
2023/10/07 00:30:13;;;;;;;8.57;3.00;;;16.40;99.90;;;;;;5068235;28;20515;-39
2023/10/07 00:32:39;;;;;;;7.57;3.15;;;16.40;99.90;;;;;;5067294;28;20501;-38
2023/10/07 00:35:06;;;;;;;7.38;3.70;;;16.40;99.90;;;;;;5067730;28;20060;-38
2023/10/07 00:37:35;;;;;;;;;;;16.40;99.90;;;;;;5075877;28;20060;-39
2023/10/07 00:40:14;;;;;;;15.63;2.88;;;16.40;99.90;;;;;;5069409;28;19909;-39
2023/10/07 00:42:45;;;;;;;9.93;3.35;;;16.40;99.90;;;;;;5076336;28;20027;-37
2023/10/07 00:45:16;;;;;;;11.02;3.75;;;16.40;99.90;;;;;;5073846;28;20020;-38
2023/10/07 00:47:42;;;;;;;8.57;3.28;;;16.40;99.90;;;;;;5060538;28;20496;-39
2023/10/07 00:50:11;;;;;;;10.68;3.65;;;16.40;99.90;;;;;;5075567;28;20016;-38
2023/10/07 00:52:55;;;;;;;11.77;3.85;;;16.40;99.90;;;;;;5074624;28;20067;-38
2023/10/07 00:55:35;;;;;;;9.80;4.13;;;16.40;99.90;;;;;;5066384;28;20112;-38
2023/10/07 00:58:06;;;;;;;15.77;4.05;;;16.40;99.90;;;;;;5071510;28;20024;-37
2023/10/07 01:05:55;;;;;;;8.40;3.28;;;16.40;99.90;;;;;;5054676;28;20140;-38
2023/10/07 01:08:27;;;;;;;11.18;3.65;;;16.40;99.90;;;;;;5055399;28;20027;-38
2023/10/07 01:10:55;;;;;;;10.43;3.25;;;16.40;99.90;;;;;;5068109;28;20515;-37
2023/10/07 01:13:29;;;;;;;7.63;3.78;;;16.40;99.90;;;;;;5072560;28;20052;-39
2023/10/07 01:15:55;;;;;;;13.40;2.80;;;16.40;99.90;;;;;;5055705;28;20078;-37
2023/10/07 01:18:24;;;;;;;12.35;3.60;;;16.40;99.90;;;;;;5057678;28;20027;-38
2023/10/07 01:26:14;;;;;;;11.45;3.85;;;16.40;99.90;;;;;;5071032;28;20128;-39
2023/10/07 01:28:40;;;;;;;12.80;3.38;;;16.40;99.90;;;;;;5063112;28;20515;-37
2023/10/07 01:31:12;;;;;;;10.15;3.40;;;16.50;99.90;;;;;;5065388;28;20104;-37
2023/10/07 01:33:46;;;;;;;14.63;3.58;;;16.50;99.90;;;;;;5075611;28;20423;-36
2023/10/07 01:36:25;;;;;;;17.02;5.55;;;16.50;99.90;;;;;;5075276;28;20549;-40
2023/10/07 01:38:51;;;;;;;12.93;3.25;;;16.50;99.90;;;;;;5064776;28;20074;-39
2023/10/07 01:41:19;;;;;;;11.18;4.03;;;16.50;99.90;;;;;;5055302;28;20028;-38
2023/10/07 01:43:50;;;;;;;6.53;3.50;;;16.50;99.90;;;;;;5055128;28;20050;-40
2023/10/07 01:46:19;;;;;;;9.43;2.90;;;16.50;99.90;;;;;;5055161;28;20082;-39
2023/10/07 01:48:55;;;;;;;16.27;3.70;;;16.60;99.90;;;;;;5055062;28;20029;-37
2023/10/07 01:51:22;;;;;;;10.57;3.28;;;16.60;99.90;;;;;;5055158;28;20036;-39
2023/10/07 01:53:49;;;;;;;13.02;3.28;;;16.60;99.90;;;;;;5055015;28;20155;-41
2023/10/07 01:56:15;;;;;;;6.53;3.17;;;16.60;99.90;;;;;;5056906;28;20061;-41
2023/10/07 01:58:41;;;;;;;11.13;3.60;;;16.60;99.90;;;;;;5075001;28;20397;-37
2023/10/07 02:01:07;;;;;;;10.80;3.20;;;16.70;99.90;;;;;;5055013;28;20017;-37
2023/10/07 02:03:33;;;;;;;6.68;3.53;;;16.70;99.90;;;;;;5055078;28;20531;-39
2023/10/07 02:05:59;;;;;;;10.52;3.75;;;16.70;99.90;;;;;;5060423;28;20025;-40
2023/10/07 02:08:25;;;;;;;15.82;3.33;;;16.70;99.90;;;;;;5073718;28;20037;-38
2023/10/07 02:10:57;;;;;;;13.63;3.83;;;16.70;99.90;;;;;;5074418;28;20028;-38
2023/10/07 02:13:23;;;;;;;11.27;3.60;;;16.70;99.90;;;;;;5070316;28;20115;-41
2023/10/07 02:15:54;;;;;;;8.90;2.90;;;16.70;99.90;;;;;;5070527;28;20013;-37
2023/10/07 02:18:20;;;;;;;9.85;3.58;;;16.70;99.90;;;;;;5054397;28;20025;-38
2023/10/07 02:21:06;;;;;;;14.43;3.67;;;16.70;99.90;;;;;;5067356;28;20035;-38
2023/10/07 02:23:45;;;;;;;10.00;3.97;;;16.70;99.90;;;;;;5074501;28;20099;-39
2023/10/07 02:26:21;;;;;;;13.00;3.47;;;16.70;99.90;;;;;;5074418;28;20438;-39
2023/10/07 02:28:52;;;;;;;6.70;3.78;;;16.80;99.90;;;;;;5074305;28;20028;-43
2023/10/07 02:31:23;;;;;;;6.18;3.95;;;16.70;99.90;;;;;;5057163;28;20037;-42
2023/10/07 02:33:53;;;;;;;11.23;4.05;;;16.70;99.90;;;;;;5069427;28;20489;-40
2023/10/07 02:36:31;;;;;;;8.57;3.63;;;16.80;99.90;;;;;;5073841;28;20028;-40
2023/10/07 02:39:04;;;;;;;6.38;2.67;;;16.80;99.90;;;;;;5074106;28;20381;-37
2023/10/07 02:41:31;;;;;;;8.43;3.55;;;16.80;99.90;;;;;;5074088;28;20019;-38
2023/10/07 02:44:03;;;;;;;10.35;3.85;;;16.80;99.90;;;;;;5073221;28;20024;-40
2023/10/07 02:46:52;;;;;;;8.25;2.78;;;16.80;99.90;;;;;;5068330;28;20462;-38
2023/10/07 02:49:20;;;;;;;9.70;3.35;;;16.80;99.90;;;;;;5074222;28;20529;-40
2023/10/07 02:51:49;;;;;;;15.88;3.45;;;16.80;99.90;;;;;;5072336;28;20446;-38
2023/10/07 02:54:19;;;;;;;11.68;3.38;;;16.90;99.90;;;;;;5073664;28;20032;-40
2023/10/07 02:57:02;;;;;;;11.10;3.40;;;16.90;99.90;;;;;;5074010;28;20358;-38
2023/10/07 02:59:31;;;;;;;10.75;3.20;;;16.90;99.90;;;;;;5073741;28;20045;-37
2023/10/07 03:02:18;;;;;;;11.98;3.08;;;16.90;99.90;;;;;;5073077;28;20035;-38
2023/10/07 03:05:29;;;;;;;9.45;2.80;;;16.90;99.90;;;;;;5073952;28;20054;-39
2023/10/07 03:07:49;;;;;;;18.20;3.75;;;17.00;99.90;;;;;;5073132;28;20044;-38
2023/10/07 03:10:27;;;;;;;10.85;3.75;;;17.00;99.90;;;;;;5057156;28;20496;-39
2023/10/07 03:12:59;;;;;;;11.40;3.40;;;17.00;99.90;;;;;;5073787;28;20108;-41
2023/10/07 03:18:00;;;;;;;9.75;2.88;;;17.10;99.90;;;;;;5071703;28;20086;-38
2023/10/07 03:20:31;;;;;;;6.82;2.45;;;17.10;99.90;;;;;;5072836;28;20401;-38
2023/10/07 03:23:14;;;;;;;6.97;2.70;;;17.10;99.90;;;;;;5073326;28;20020;-38
2023/10/07 03:28:23;;;;;;;9.70;2.90;;;17.10;99.90;;;;;;5073441;28;20059;-38
2023/10/07 03:31:10;;;;;;;9.13;2.78;;;17.20;99.90;;;;;;5071654;28;20476;-38
2023/10/07 03:33:52;;;;;;;12.10;3.05;;;17.10;99.90;;;;;;5073154;28;20099;-38
2023/10/07 03:39:09;;;;;;;5.75;2.83;;;17.20;99.90;;;;;;5073430;28;20066;-37
2023/10/07 03:41:35;;;;;;;;;;;17.20;99.90;;;;;;5073164;28;20020;-40
2023/10/07 03:44:04;;;;;;;5.68;2.72;;;17.10;99.90;;;;;;5072927;28;19904;-52
2023/10/07 03:46:30;;;;;;;8.95;2.88;;;17.20;99.90;;;;;;5071111;28;20025;-53
2023/10/07 03:48:56;;;;;;;12.93;3.15;;;17.10;99.90;;;;;;5071727;28;20496;-54
2023/10/07 03:51:22;;;;;;;9.20;2.92;;;17.10;99.90;;;;;;5071303;28;20035;-53
2023/10/07 03:53:51;;;;;;;13.20;3.72;;;17.10;99.90;;;;;;5072639;28;20389;-53
2023/10/07 03:56:20;;;;;;;6.47;3.03;;;17.10;99.90;;;;;;5070919;28;20103;-52
2023/10/07 03:58:47;;;;;;;9.00;3.65;;;17.10;99.90;;;;;;5073108;28;20028;-51
2023/10/07 04:01:16;;;;;;;12.75;3.60;;;17.10;99.90;;;;;;5071010;28;20245;-52
2023/10/07 04:03:52;;;;;;;13.00;3.50;;;17.10;99.90;;;;;;5072511;28;20028;-52
2023/10/07 04:06:19;;;;;;;4.57;2.58;;;17.10;99.90;;;;;;5072498;28;20033;-50
2023/10/07 04:08:52;;;;;;;;;;;17.10;99.90;;;;;;5072832;28;20036;-52
2023/10/07 04:11:25;;;;;;;16.73;3.65;;;17.10;99.90;;;;;;5053661;28;19963;-51
2023/10/07 04:13:53;;;;;;;12.13;2.70;;;17.10;99.90;;;;;;5051454;28;20025;-53
2023/10/07 04:16:27;;;;;;;11.20;3.00;;;17.10;99.90;;;;;;5053829;28;20484;-52
2023/10/07 04:21:56;;;;;;;11.45;3.45;;;17.10;99.90;;;;;;5050171;28;20037;-52
2023/10/07 04:24:28;;;;;;;5.90;2.67;;;17.10;99.90;;;;;;5067447;28;20047;-52
2023/10/07 04:26:54;;;;;;;13.55;2.83;;;17.20;99.90;;;;;;5051897;28;20033;-52
2023/10/07 04:29:24;;;;;;;9.10;3.28;;;17.20;99.90;;;;;;5072362;28;20075;-51
2023/10/07 04:31:51;;;;;;;10.35;3.20;;;17.20;99.90;;;;;;5070135;28;20028;-54
2023/10/07 04:34:21;;;;;;;6.80;2.65;;;17.20;99.90;;;;;;5072246;28;20082;-51
2023/10/07 04:39:29;;;;;;;7.68;3.05;;;17.20;99.90;;;;;;5072472;28;20036;-52
2023/10/07 04:41:59;;;;;;;6.82;3.28;;;17.20;99.90;;;;;;5071912;28;20028;-52
2023/10/07 04:49:58;;;;;;;4.97;2.60;;;17.20;99.90;;;;;;5072094;28;20493;-53
2023/10/07 04:52:30;;;;;;;10.15;3.70;;;17.20;99.90;;;;;;5072263;28;20013;-52
2023/10/07 04:55:00;;;;;;;6.28;3.03;;;17.30;99.90;;;;;;5072010;28;20020;-51
2023/10/07 05:03:08;;;;;;;7.78;3.17;;;17.30;99.90;;;;;;5070516;28;20029;-49
2023/10/07 05:05:34;;;;;;;13.88;2.75;;;17.30;99.90;;;;;;5072198;28;20385;-53
2023/10/07 05:08:22;;;;;;;6.78;2.33;;;17.30;99.90;;;;;;5075886;28;20020;-53
2023/10/07 05:10:52;;;;;;;7.38;2.53;;;17.30;99.90;;;;;;5075326;28;20496;-52
2023/10/07 05:13:19;;;;;;;12.10;3.40;;;17.30;99.90;;;;;;5075856;28;20032;-47
2023/10/07 05:15:45;;;;;;;9.70;3.10;;;17.30;99.90;;;;;;5075713;28;20453;-53
2023/10/07 05:18:12;;;;;;;5.68;2.40;;;17.30;99.90;;;;;;5073601;28;20020;-53
2023/10/07 05:20:42;;;;;;;10.60;2.58;;;17.30;99.90;;;;;;5075650;28;20024;-53
2023/10/07 05:23:09;;;;;;;9.18;2.60;;;17.30;99.90;;;;;;5075890;28;20021;-52
2023/10/07 05:25:43;;;;;;;11.52;3.30;;;17.30;99.90;;;;;;5075732;28;20103;-52
2023/10/07 05:28:16;;;;;;;9.20;2.25;;;17.30;99.90;;;;;;5075454;28;20452;-53
2023/10/07 05:30:52;;;;;;;12.35;2.72;;;17.30;99.90;;;;;;5075331;28;20031;-50
2023/10/07 05:33:25;;;;;;;10.32;2.95;;;17.30;99.90;;;;;;5073843;28;20090;-52
2023/10/07 05:36:23;;;;;;;14.57;3.58;;;17.30;99.90;;;;;;5075066;28;20033;-50
2023/10/07 05:38:50;;;;;;;11.18;2.30;;;17.30;99.90;;;;;;5074853;28;20115;-52
2023/10/07 05:41:16;;;;;;;8.00;2.33;;;17.30;99.90;;;;;;5075349;28;20024;-52
2023/10/07 05:43:43;;;;;;;7.68;2.40;;;17.40;99.90;;;;;;5075244;28;20021;-52
2023/10/07 05:46:12;;;;;;;5.80;2.10;;;17.40;99.90;;;;;;5075225;28;20044;-52
2023/10/07 05:48:42;;;;;;;13.13;2.95;;;17.40;99.90;;;;;;5073368;28;20021;-51
2023/10/07 05:51:11;;;;;;;10.90;2.03;;;17.40;99.90;;;;;;5063626;28;20480;-53
2023/10/07 05:53:48;;;;;;;9.27;2.25;;;17.30;99.90;;;;;;5075284;28;20511;-52
2023/10/07 05:56:14;;;;;;;6.00;2.83;;;17.40;99.90;;;;;;5075057;28;20060;-52
2023/10/07 05:58:40;;;;;;;10.82;3.25;;;17.40;99.90;;;;;;5073944;28;20328;-52
2023/10/07 06:01:11;;;;;;;11.10;2.20;;;17.40;99.90;;;;;;5074668;28;20032;-54
2023/10/07 06:03:37;;;;;;;9.13;2.88;;;17.40;99.90;;;;;;5073587;28;20463;-46
2023/10/07 06:06:04;;;;;;;19.27;3.47;;;17.40;99.90;;;;;;5074589;28;20017;-53
2023/10/07 06:08:32;;;;;;;10.13;3.10;;;17.40;99.90;;;;;;5073557;28;20056;-54
2023/10/07 06:10:59;;;;;;;10.95;3.08;;;17.40;99.90;;;;;;5074763;28;20029;-52
2023/10/07 06:13:27;;;;;;;8.53;2.10;;;17.40;99.90;;;;;;5074526;28;20066;-56
2023/10/07 06:15:55;;;;;;;8.40;2.85;;;17.40;99.90;;;;;;5074882;28;20278;-55
2023/10/07 06:18:25;;;;;;;17.15;3.42;;;17.40;99.90;;;;;;5070579;28;20413;-54
2023/10/07 06:20:51;;;;;;;13.20;3.33;;;17.50;99.90;;;;;;5074381;28;20028;-53
2023/10/07 06:23:20;;;;;;;9.85;3.05;;;17.50;99.90;;;;;;5074241;28;20429;-54
2023/10/07 06:25:50;;;;;;;6.13;3.00;;;17.50;99.90;;;;;;5074079;28;20077;-54
2023/10/07 06:31:14;;;;;;;21.27;3.90;;;17.50;99.90;;;;;;5059137;28;20078;-50
2023/10/07 06:33:46;;;;;;;11.17;2.80;;;17.50;99.90;;;;;;5072733;28;20139;-54
2023/10/07 06:36:12;;;;;;;13.98;3.35;;;17.50;99.90;;;;;;5067066;28;20029;-51
2023/10/07 06:38:52;;;;;;;16.88;3.90;;;17.50;99.90;;;;;;5057864;28;20354;-53
2023/10/07 06:41:18;;;;;;;8.93;2.70;;;17.50;99.90;;;;;;5072755;28;20458;-52
2023/10/07 06:43:51;;;;;;;8.93;2.67;;;17.60;99.90;;;;;;5071758;28;20040;-54
2023/10/07 06:46:20;;;;;;;11.80;2.83;;;17.60;99.90;;;;;;5073647;28;20093;-53
2023/10/07 06:48:49;;;;;;;13.90;4.40;;;17.60;99.90;;;;;;5072350;28;20489;-46
2023/10/07 06:51:16;;;;;;;9.73;3.22;;;17.60;99.90;;;;;;5073566;28;20051;-53
2023/10/07 06:53:45;;;;;;;9.63;2.95;;;17.60;99.90;;;;;;5073518;28;20036;-53
2023/10/07 06:56:20;;;;;;;8.88;2.88;;;17.70;99.90;;;;;;5066986;28;20033;-53
2023/10/07 06:58:47;;;;;;;11.15;3.05;;;17.70;99.90;;;;;;5056935;28;20353;-51
2023/10/07 07:01:19;;;;;;;17.63;3.80;;;17.70;99.90;;;;;;5073575;28;20016;-54
2023/10/07 07:03:45;;;;;;;13.48;2.65;;;17.70;99.90;;;;;;5074040;28;20492;-53
2023/10/07 07:06:17;;;;;;;13.93;3.58;;;17.80;99.90;;;;;;5075396;28;20033;-54
2023/10/07 07:08:44;;;;;;;10.77;3.22;;;17.80;99.90;;;;;;5094172;28;20028;-54
2023/10/07 07:11:10;;;;;;;12.50;3.50;;;17.80;99.90;;;;;;5089003;28;20065;-54
2023/10/07 07:13:37;;;;;;;7.88;2.70;;;17.80;99.90;;;;;;5073909;28;20056;-53
2023/10/07 07:16:13;;;;;;;7.83;2.33;;;17.80;99.90;;;;;;5074591;28;20033;-53
2023/10/07 07:18:40;;;;;;;17.92;2.80;;;17.90;99.90;;;;;;5072717;28;20405;-54
2023/10/07 07:21:14;;;;;;;25.85;3.80;;;18.00;99.90;;;;;;5092427;28;20012;-53
2023/10/07 07:23:49;;;;;;;13.35;3.35;;;18.10;99.90;;;;;;5073262;28;20385;-53
2023/10/07 07:26:18;;;;;;;8.45;3.20;;;18.10;99.90;;;;;;5073057;28;20027;-54
2023/10/07 07:28:44;;;;;;;12.77;4.38;;;18.10;99.90;;;;;;5072690;28;20584;-53
2023/10/07 07:31:11;;;;;;;14.85;3.47;;;18.10;99.90;;;;;;5073050;28;20028;-53
2023/10/07 07:33:38;;;;;;;;;;;18.10;99.90;;;;;;5073278;28;20482;-54
2023/10/07 07:37:05;;;;;;;12.65;4.10;;;18.10;99.90;;;;;;5056169;28;19909;-54
2023/10/07 07:38:59;;;;;;;7.80;3.22;;;18.20;99.90;;;;;;5056281;28;20040;-53
2023/10/07 07:41:34;;;;;;;13.30;4.05;;;18.20;99.90;;;;;;5072677;28;20013;-53
2023/10/07 07:44:00;;;;;;;15.15;5.65;;;18.20;99.90;;;;;;5052993;28;20158;-54
2023/10/07 07:46:29;;;;;;;12.40;3.78;;;18.30;99.90;;;;;;5066130;28;20493;-52
2023/10/07 07:48:55;;;;;;;11.45;3.97;;;18.30;99.90;;;;;;5072708;28;20029;-54
2023/10/07 07:51:24;;;;;;;16.90;3.53;;;18.30;99.90;;;;;;5069987;28;20108;-53
2023/10/07 07:53:51;;;;;;;16.67;3.75;;;18.30;99.90;;;;;;5072453;28;20524;-44
2023/10/07 07:56:18;;;;;;;13.43;3.83;;;18.30;99.90;;;;;;5072801;28;20024;-41
2023/10/07 07:58:48;;;;;;;11.30;4.22;;;18.40;99.90;;;;;;5072824;28;20025;-40
2023/10/07 08:01:28;;;;;;;21.77;4.40;;;18.40;99.90;;;;;;5072698;28;20302;-42
2023/10/07 08:03:55;;;;;;;11.77;3.85;;;18.40;99.90;;;;;;5072761;28;20070;-41
2023/10/07 08:06:21;;;;;;;18.37;4.13;;;18.40;99.90;;;;;;5072694;28;20423;-42
2023/10/07 08:08:50;;;;;;;10.77;3.22;;;18.40;99.90;;;;;;5072408;28;20025;-44
2023/10/07 08:11:19;;;;;;;14.25;3.97;;;18.50;99.90;;;;;;5064534;28;20045;-45
2023/10/07 08:13:45;;;;;;;12.07;3.85;;;18.60;99.90;;;;;;5052629;28;20025;-46
2023/10/07 08:16:21;;;;;;;14.20;4.03;;;18.60;99.90;;;;;;5051304;28;20056;-42
2023/10/07 08:18:53;;;;;;;29.70;4.60;;;18.70;99.90;;;;;;5052359;28;20405;-43
2023/10/07 08:21:28;;;;;;;12.52;3.35;;;18.80;99.90;;;;;;5077350;28;20480;-43
2023/10/07 08:23:54;;;;;;;15.13;4.82;;;18.80;99.90;;;;;;5092733;28;20024;-50
2023/10/07 08:26:23;;;;;;;21.05;3.78;;;18.80;99.90;;;;;;5072937;28;20025;-54
2023/10/07 08:31:37;;;;;;;13.10;3.22;;;18.90;99.90;;;;;;5093150;28;20035;-54
2023/10/07 08:36:34;;;;;;;9.48;3.50;;;19.00;99.90;;;;;;5086892;28;20028;-54
2023/10/07 08:39:05;;;;;;;10.95;3.47;;;19.00;99.90;;;;;;5072703;28;20024;-54
2023/10/07 08:41:31;;;;;;;14.25;4.35;;;19.10;99.90;;;;;;5074167;28;20033;-53
2023/10/07 08:44:15;;;;;;;10.43;2.85;;;19.20;99.90;;;;;;5060470;28;20094;-53
2023/10/07 08:46:52;;;;;;;22.27;3.90;;;19.20;99.90;;;;;;5069529;28;20496;-53
2023/10/07 08:49:26;;;;;;;17.55;3.70;;;19.30;99.90;;;;;;5076590;28;20024;-55
2023/10/07 08:51:54;;;;;;;11.80;3.63;;;19.40;99.90;;;;;;5076216;28;20090;-44
2023/10/07 08:54:26;;;;;;;13.63;3.55;;;19.50;99.90;;;;;;5076281;28;20405;-39
2023/10/07 08:56:57;;;;;;;13.10;3.08;;;19.60;99.90;;;;;;5076046;28;20024;-40
2023/10/07 08:59:25;;;;;;;13.88;3.90;;;19.60;99.90;;;;;;5073381;28;20143;-39
2023/10/07 09:02:03;;;;;;;10.80;3.08;;;19.60;99.90;;;;;;5075994;28;20063;-39
2023/10/07 09:04:31;;;;;;;32.65;3.95;;;19.70;99.90;;;;;;5076263;28;20020;-38
2023/10/07 09:06:58;;;;;;;10.35;3.05;;;19.70;99.90;;;;;;5076148;28;20020;-37
2023/10/07 09:09:43;;;;;;;12.05;2.80;;;19.70;99.90;;;;;;5075972;28;20029;-40
2023/10/07 09:12:29;;;;;;;7.90;2.50;;;19.70;99.90;;;;;;5075970;28;20028;-43
2023/10/07 09:14:57;;;;;;;14.18;2.78;;;19.80;99.90;;;;;;5075748;28;20380;-40
2023/10/07 09:17:27;;;;;;;8.40;2.38;;;19.80;99.90;;;;;;5064590;28;20029;-40
2023/10/07 09:19:58;;;;;;;11.48;3.55;;;19.90;99.90;;;;;;5055531;28;20044;-38
2023/10/07 09:22:25;;;;;;;6.65;2.70;;;19.90;99.90;;;;;;5055841;28;20029;-38
2023/10/07 09:24:54;;;;;;;12.82;3.33;;;20.00;99.90;;;;;;5059343;28;20046;-41
2023/10/07 09:27:38;;;;;;;9.90;2.70;;;20.10;99.90;;;;;;5069659;28;20116;-52
2023/10/07 09:30:35;;;;;;;12.68;3.15;;;20.20;99.90;;;;;;5075474;28;20043;-42
2023/10/07 09:32:55;;;;;;;11.07;3.00;;;20.30;99.90;;;;;;5075335;28;20037;-38
2023/10/07 09:35:24;;;;;;;;;;;20.40;99.90;;;;;;5075208;28;20078;-39
2023/10/07 09:37:53;;;;;;;12.30;3.20;;;20.40;99.90;;;;;;5075324;28;20257;-40
2023/10/07 09:43:13;;;;;;;8.68;2.20;;;20.50;99.90;;;;;;5055443;28;20448;-37
2023/10/07 09:45:39;;;;;;;23.50;3.33;;;20.60;99.90;;;;;;5055546;28;20025;-40
2023/10/07 09:48:08;;;;;;;13.55;2.85;;;20.80;99.90;;;;;;5055461;28;20029;-40
2023/10/07 09:50:37;;;;;;;6.70;2.33;;;20.80;99.90;;;;;;5055591;28;20037;-39
2023/10/07 09:53:30;;;;;;;9.27;2.45;;;20.70;99.90;;;;;;5055304;28;20028;-39
2023/10/07 09:56:31;;;;;;;14.05;3.13;;;20.70;99.90;;;;;;5055342;28;20397;-38
2023/10/07 09:59:17;;;;;;;9.13;3.15;;;20.60;99.90;;;;;;5053629;28;20041;-37
2023/10/07 10:02:24;;;;;;;9.90;2.10;;;20.80;99.90;;;;;;5074782;28;20104;-39
2023/10/07 10:05:25;;;;;;;16.60;2.63;;;20.90;99.90;;;;;;5077932;28;20389;-38
2023/10/07 10:08:21;;;;;;;10.85;4.18;;;21.00;99.90;;;;;;5060176;28;20021;-38
2023/10/07 10:10:49;;;;;;;10.43;2.67;;;21.00;99.90;;;;;;5069415;28;20514;-39
2023/10/07 10:13:29;;;;;;;8.55;2.55;;;21.00;99.90;;;;;;5072504;28;20520;-38
2023/10/07 10:16:01;;;;;;;7.78;2.75;;;21.00;99.90;;;;;;5074034;28;20036;-41
2023/10/07 10:18:40;;;;;;;12.25;3.60;;;21.10;99.90;;;;;;5074349;28;20044;-39
2023/10/07 10:21:12;;;;;;;10.65;2.25;;;21.20;99.90;;;;;;5055941;28;20510;-40
2023/10/07 10:23:44;;;;;;;16.75;3.67;;;21.20;99.90;;;;;;5054486;28;20410;-38
2023/10/07 10:26:15;;;;;;;13.93;2.67;;;21.20;99.90;;;;;;5069583;28;20021;-36
2023/10/07 10:28:42;;;;;;;15.55;3.10;;;21.10;99.90;;;;;;5072291;28;20090;-41
2023/10/07 10:31:19;;;;;;;7.60;2.97;;;21.00;99.90;;;;;;5074576;28;20023;-38
2023/10/07 10:33:49;;;;;;;11.30;2.90;;;20.90;99.90;;;;;;5074531;28;20127;-39
2023/10/07 10:36:18;;;;;;;14.80;2.28;;;20.90;99.90;;;;;;5074306;28;20036;-40
2023/10/07 10:38:45;;;;;;;13.57;2.42;;;20.90;99.90;;;;;;5074525;28;20515;-37
2023/10/07 10:41:11;;;;;;;13.05;2.92;;;21.00;99.90;;;;;;5068880;28;20546;-39
2023/10/07 10:43:37;;;;;;;10.60;4.18;;;21.00;99.90;;;;;;5074105;28;20025;-37
2023/10/07 10:46:07;;;;;;;16.70;2.92;;;20.90;99.90;;;;;;5074049;28;20052;-41
2023/10/07 10:48:34;;;;;;;11.38;2.75;;;20.90;99.90;;;;;;5073983;28;20029;-47
2023/10/07 10:51:05;;;;;;;11.50;3.30;;;20.90;99.90;;;;;;5064838;28;20489;-37
2023/10/07 10:53:35;;;;;;;12.88;3.17;;;21.00;99.90;;;;;;5054243;28;20025;-38
2023/10/07 10:56:03;;;;;;;16.10;3.08;;;21.20;99.90;;;;;;5054144;28;20029;-38
2023/10/07 10:58:30;;;;;;;8.82;3.05;;;21.30;99.90;;;;;;5057559;28;20021;-41
2023/10/07 11:00:55;;;;;;;14.30;2.97;;;21.40;99.90;;;;;;5073658;28;20107;-41
2023/10/07 11:03:21;;;;;;;8.25;3.28;;;21.40;99.90;;;;;;5073330;28;20048;-40
2023/10/07 11:05:54;;;;;;;8.75;2.40;;;21.50;99.90;;;;;;5073795;28;20055;-38
2023/10/07 11:08:24;;;;;;;16.35;3.30;;;21.60;99.90;;;;;;5073823;28;20366;-38
2023/10/07 11:10:55;;;;;;;6.35;2.72;;;21.50;99.90;;;;;;5072800;28;20024;-40
2023/10/07 11:13:22;;;;;;;11.23;3.15;;;21.50;99.90;;;;;;5073524;28;20039;-42
2023/10/07 11:16:10;;;;;;;9.05;2.28;;;21.50;99.90;;;;;;5072630;28;20503;-35
2023/10/07 11:18:47;;;;;;;6.90;2.30;;;21.60;99.90;;;;;;5073018;28;20016;-38
2023/10/07 11:21:18;;;;;;;10.80;2.22;;;21.60;99.90;;;;;;5072105;28;20029;-39
2023/10/07 11:23:52;;;;;;;9.63;2.53;;;21.70;99.90;;;;;;5072371;28;20443;-37
2023/10/07 11:26:20;;;;;;;16.95;2.97;;;21.70;99.90;;;;;;5063294;28;20029;-44
2023/10/07 11:28:48;;;;;;;;;;;21.70;99.90;;;;;;5067717;28;20028;-39
2023/10/07 11:31:20;;;;;;;15.65;3.20;;;21.50;99.90;;;;;;5073036;28;19912;-43
2023/10/07 11:33:50;;;;;;;8.93;3.10;;;21.50;99.90;;;;;;5072311;28;20037;-44
2023/10/07 11:36:16;;;;;;;8.63;2.50;;;21.40;99.90;;;;;;5053030;28;20091;-42
2023/10/07 11:38:43;;;;;;;9.30;2.92;;;21.50;99.90;;;;;;5053410;28;20021;-38
2023/10/07 11:41:10;;;;;;;6.53;2.13;;;21.70;99.90;;;;;;5064091;28;20493;-40
2023/10/07 11:43:48;;;;;;;4.30;2.03;;;21.80;99.90;;;;;;5069020;28;20025;-44
2023/10/07 11:46:15;;;;;;;10.73;2.80;;;21.80;99.90;;;;;;5059871;28;20037;-43
2023/10/07 11:48:41;;;;;;;6.45;1.73;;;21.80;99.90;;;;;;5051712;28;20064;-37
2023/10/07 11:51:09;;;;;;;8.52;2.70;;;21.90;99.90;;;;;;5070145;28;20028;-37
2023/10/07 11:53:35;;;;;;;14.52;2.53;;;22.00;99.90;;;;;;5073144;28;20043;-38
2023/10/07 11:56:05;;;;;;;14.48;3.40;;;22.10;99.90;;;;;;5058374;28;20033;-40
2023/10/07 11:58:32;;;;;;;8.23;3.03;;;22.10;99.90;;;;;;5053313;28;20032;-40
2023/10/07 12:00:57;;;;;;;9.27;2.85;;;22.20;99.90;;;;;;5066178;28;20028;-40
2023/10/07 12:03:25;;;;;;;11.07;2.30;;;22.10;99.90;;;;;;5071960;28;20058;-40
2023/10/07 12:05:51;;;;;;;7.38;2.80;;;22.10;99.90;;;;;;5072581;28;20029;-39
2023/10/07 12:08:19;;;;;;;8.10;2.90;;;22.20;99.90;;;;;;5053705;28;20036;-40
2023/10/07 12:10:49;;;;;;;9.38;2.53;;;22.10;99.90;;;;;;5053037;28;20025;-52
2023/10/07 12:13:14;;;;;;;8.90;2.35;;;22.00;99.90;;;;;;5051864;28;20036;-50
2023/10/07 12:15:42;;;;;;;3.30;2.13;;;21.90;99.90;;;;;;5050415;28;20061;-52
2023/10/07 12:18:14;;;;;;;6.18;2.58;;;21.90;99.90;;;;;;5052936;28;20017;-53
2023/10/07 12:20:40;;;;;;;9.32;2.78;;;21.90;99.90;;;;;;5069268;28;20043;-52
2023/10/07 12:23:24;;;;;;;6.60;2.72;;;21.80;99.90;;;;;;5072176;28;20469;-52
2023/10/07 12:25:50;;;;;;;6.65;2.45;;;21.80;99.90;;;;;;5064060;28;20020;-52
2023/10/07 12:28:16;;;;;;;8.75;2.65;;;21.80;99.90;;;;;;5071137;28;20103;-51
2023/10/07 12:30:44;;;;;;;9.23;2.43;;;21.70;99.90;;;;;;5064835;28;20021;-54
2023/10/07 12:33:10;;;;;;;9.75;2.60;;;21.70;99.90;;;;;;5062330;28;20078;-54
2023/10/07 12:35:36;;;;;;;8.13;2.88;;;21.80;99.90;;;;;;5068227;28;20028;-51
2023/10/07 12:38:02;;;;;;;7.68;3.00;;;21.80;99.90;;;;;;5071738;28;20554;-54
2023/10/07 12:40:30;;;;;;;5.95;2.72;;;21.80;99.90;;;;;;5068445;28;20113;-51
2023/10/07 12:42:59;;;;;;;9.35;3.03;;;21.80;99.90;;;;;;5070444;28;20067;-50
2023/10/07 12:45:25;;;;;;;7.53;2.97;;;21.70;99.90;;;;;;5072251;28;20530;-51
2023/10/07 12:47:55;;;;;;;12.57;2.97;;;21.50;99.90;;;;;;5072370;28;20032;-53
2023/10/07 12:50:28;;;;;;;11.85;2.53;;;21.40;99.90;;;;;;5072140;28;20103;-52
2023/10/07 12:52:55;;;;;;;11.27;2.50;;;21.30;99.90;;;;;;5067921;28;20047;-49
2023/10/07 12:55:21;;;;;;;9.45;2.65;;;21.20;99.90;;;;;;5052027;28;20024;-49
2023/10/07 12:57:51;;;;;;;6.28;2.45;;;21.30;99.90;;;;;;5060894;28;20032;-52
2023/10/07 13:00:23;;;;;;;10.93;2.47;;;21.30;99.90;;;;;;5052267;28;20037;-52
2023/10/07 13:02:50;;;;;;;7.65;3.00;;;21.30;99.90;;;;;;5064535;28;20445;-52
2023/10/07 13:05:19;;;;;;;15.00;2.63;;;21.20;99.90;;;;;;5072185;28;20094;-52
2023/10/07 13:07:53;;;;;;;5.57;2.53;;;21.20;99.90;;;;;;5072208;28;20064;-52
2023/10/07 13:10:20;;;;;;;14.40;3.55;;;21.20;99.90;;;;;;5072080;28;20032;-42
2023/10/07 13:12:46;;;;;;;15.43;2.80;;;21.20;99.90;;;;;;5072347;28;20489;-39
2023/10/07 13:15:18;;;;;;;9.25;1.88;;;21.20;99.90;;;;;;5061605;28;20021;-40
2023/10/07 13:17:47;;;;;;;7.07;2.72;;;21.20;99.90;;;;;;5052353;28;20032;-41
2023/10/07 13:20:20;;;;;;;16.00;3.05;;;21.10;99.90;;;;;;5051884;28;20044;-41
2023/10/07 13:23:11;;;;;;;6.85;2.60;;;21.00;99.90;;;;;;5052327;28;20444;-40
2023/10/07 13:25:37;;;;;;;25.60;3.05;;;21.00;99.90;;;;;;5059526;28;20054;-40
2023/10/07 13:28:03;;;;;;;6.38;2.28;;;21.00;99.90;;;;;;5062153;28;20037;-40
2023/10/07 13:30:30;;;;;;;9.13;3.65;;;21.00;99.90;;;;;;5099203;28;20486;-40
2023/10/07 13:32:56;;;;;;;5.18;2.70;;;21.10;99.90;;;;;;5076730;28;20039;-40
2023/10/07 13:35:24;;;;;;;13.98;3.92;;;21.10;99.90;;;;;;5095333;28;20028;-37
2023/10/07 13:37:52;;;;;;;7.10;2.80;;;21.10;99.90;;;;;;5095587;28;20024;-38
2023/10/07 13:40:21;;;;;;;12.07;2.88;;;21.10;99.90;;;;;;5094241;28;20438;-39
2023/10/07 13:42:49;;;;;;;7.00;2.63;;;21.10;99.90;;;;;;5087620;28;20036;-42
2023/10/07 13:45:15;;;;;;;6.65;2.60;;;21.20;99.90;;;;;;5081837;28;20035;-40
2023/10/07 13:47:45;;;;;;;9.60;2.72;;;21.20;99.90;;;;;;5095782;28;20024;-37
2023/10/07 13:50:14;;;;;;;7.78;2.85;;;21.20;99.90;;;;;;5059211;28;20021;-39